Time;durP1;ratioP1;P1;durP2;ratioP2;P2;SDS_P1;SDS_P2;PMS_P1;PMS_P2;Temp;Humidity;BMP_temperature;BMP_pressure;BME280_temperature;BME280_humidity;BME280_pressure;Samples;Min_cycle;Max_cycle;Signal;HPM_P1;HPM_P2
2022/01/18 00:00:23;;;;;;;33.15;4.15;;;5.70;99.90;;;;;;4148978;28;20487;-83
2022/01/18 00:02:27;;;;;;;22.20;2.88;;;5.80;99.90;;;;;;4133101;28;20053;-83
2022/01/18 00:04:27;;;;;;;18.95;3.03;;;6.40;99.90;;;;;;4132638;28;20110;-83
2022/01/18 00:06:28;;;;;;;29.77;3.33;;;6.60;99.90;;;;;;4149601;28;20046;-83
2022/01/18 00:08:29;;;;;;;32.28;4.45;;;5.60;99.90;;;;;;4131636;28;20163;-83
2022/01/18 00:10:32;;;;;;;26.73;4.50;;;5.50;99.90;;;;;;4115867;28;20059;-84
2022/01/18 00:14:43;;;;;;;21.85;3.22;;;6.00;99.90;;;;;;4149585;28;20554;-83
2022/01/18 00:17:02;;;;;;;25.83;3.65;;;6.60;99.90;;;;;;4131649;28;20050;-83
2022/01/18 00:19:08;;;;;;;15.55;2.33;;;6.10;99.90;;;;;;4152127;28;20082;-83
2022/01/18 00:21:19;;;;;;;30.50;2.92;;;6.70;99.90;;;;;;4115509;28;20047;-83
2022/01/18 00:23:21;;;;;;;27.38;3.67;;;5.40;99.90;;;;;;4130109;28;20519;-83
2022/01/18 00:25:21;;;;;;;33.30;4.53;;;5.60;99.90;;;;;;4148709;28;20050;-83
2022/01/18 00:27:22;;;;;;;32.53;2.95;;;6.80;99.90;;;;;;4147416;28;20054;-83
2022/01/18 00:29:25;;;;;;;23.08;3.10;;;6.20;99.90;;;;;;4148778;28;20581;-83
2022/01/18 00:33:55;;;;;;;25.40;2.55;;;6.00;99.90;;;;;;4164962;28;20042;-83
2022/01/18 00:35:57;;;;;;;22.45;2.78;;;6.10;99.90;;;;;;4148493;28;20053;-83
2022/01/18 00:37:59;;;;;;;32.80;4.07;;;5.50;99.90;;;;;;4131702;28;20053;-83
2022/01/18 00:40:00;;;;;;;32.20;2.92;;;5.90;99.90;;;;;;4131194;28;20117;-83
2022/01/18 00:42:03;;;;;;;29.38;3.63;;;5.20;99.90;;;;;;4131364;28;20058;-83
2022/01/18 00:44:10;;;;;;;18.27;3.58;;;4.80;99.90;;;;;;4148869;28;20152;-83
2022/01/18 00:46:12;;;;;;;16.77;2.58;;;5.10;99.90;;;;;;4131064;28;20129;-83
2022/01/18 00:48:14;;;;;;;20.70;3.10;;;6.10;99.90;;;;;;4115165;28;20058;-83
2022/01/18 00:50:14;;;;;;;17.17;2.78;;;5.00;99.90;;;;;;4148991;28;20402;-83
2022/01/18 00:52:19;;;;;;;19.30;2.97;;;5.00;99.90;;;;;;4155343;28;20046;-83
2022/01/18 00:54:24;;;;;;;26.33;4.00;;;6.40;99.90;;;;;;4137954;28;20050;-83
2022/01/18 00:56:28;;;;;;;21.05;2.17;;;5.00;99.90;;;;;;4098606;29;20109;-83
2022/01/18 00:58:29;;;;;;;18.38;1.75;;;4.90;99.90;;;;;;4141143;28;20050;-83
2022/01/18 01:00:30;;;;;;;32.88;3.25;;;3.80;99.90;;;;;;4131507;28;20554;-83
2022/01/18 01:02:31;;;;;;;36.70;4.53;;;6.10;99.90;;;;;;4131284;28;20170;-83
2022/01/18 01:04:36;;;;;;;19.77;2.38;;;4.80;99.90;;;;;;4130951;28;20050;-83
2022/01/18 01:06:37;;;;;;;24.00;3.47;;;4.80;99.90;;;;;;4130867;28;20136;-82
2022/01/18 01:08:39;;;;;;;23.25;2.15;;;6.00;99.90;;;;;;4131155;28;20514;-82
2022/01/18 01:10:43;;;;;;;29.83;2.92;;;5.80;99.90;;;;;;4129799;28;20046;-82
2022/01/18 01:12:44;;;;;;;13.90;2.47;;;6.30;99.90;;;;;;4148284;28;20042;-82
2022/01/18 01:14:46;;;;;;;31.48;3.67;;;6.00;99.90;;;;;;4130855;28;20539;-83
2022/01/18 01:16:58;;;;;;;31.60;3.15;;;6.00;99.90;;;;;;4130927;28;20448;-82
2022/01/18 01:33:25;;;;;;;26.77;3.42;;;4.90;99.90;;;;;;4130683;28;20443;-82
2022/01/18 01:46:12;;;;;;;24.83;2.25;;;4.80;99.90;;;;;;4129970;28;20050;-83
2022/01/18 01:48:14;;;;;;;24.00;2.50;;;6.30;99.90;;;;;;4147656;28;20057;-83
2022/01/18 01:50:19;;;;;;;20.00;3.13;;;6.00;99.90;;;;;;4147878;28;20117;-83
2022/01/18 01:52:21;;;;;;;16.98;2.22;;;5.70;99.90;;;;;;4130353;28;20088;-83
2022/01/18 01:54:22;;;;;;;22.83;2.40;;;6.10;99.90;;;;;;4130345;28;20050;-83
2022/01/18 01:56:23;;;;;;;18.55;2.40;;;4.90;99.90;;;;;;4148139;28;20092;-83
2022/01/18 01:58:26;;;;;;;29.27;2.53;;;4.90;99.90;;;;;;4129818;28;20081;-83
2022/01/18 02:00:27;;;;;;;17.80;2.10;;;5.00;99.90;;;;;;4130429;28;20042;-83
2022/01/18 02:02:30;;;;;;;22.45;3.33;;;5.70;99.90;;;;;;4114309;28;20055;-84
2022/01/18 02:04:30;;;;;;;17.38;2.42;;;6.40;99.90;;;;;;4147730;28;20046;-83
2022/01/18 02:06:31;;;;;;;20.27;2.20;;;6.20;99.90;;;;;;4130185;28;20057;-83
2022/01/18 02:08:36;;;;;;;24.63;3.30;;;5.00;99.90;;;;;;4132310;28;20052;-83
2022/01/18 02:10:39;;;;;;;24.15;2.78;;;5.10;99.90;;;;;;4150852;28;20042;-83
2022/01/18 02:12:40;;;;;;;19.98;2.65;;;5.40;99.90;;;;;;4133545;28;20105;-83
2022/01/18 02:14:47;;;;;;;11.35;2.45;;;5.10;99.90;;;;;;4133868;28;20054;-83
2022/01/18 02:21:46;;;;;;;16.13;2.22;;;5.20;99.90;;;;;;4129495;28;20061;-82
2022/01/18 02:23:47;;;;;;;22.08;2.67;;;5.30;99.90;;;;;;4151300;28;20113;-83
2022/01/18 02:25:51;;;;;;;15.73;3.08;;;5.40;99.90;;;;;;4150922;28;20053;-82
2022/01/18 02:27:51;;;;;;;21.15;2.17;;;5.40;99.90;;;;;;4151179;28;20046;-83
2022/01/18 02:29:52;;;;;;;18.48;3.40;;;6.40;99.90;;;;;;4149971;28;20037;-82
2022/01/18 02:31:54;;;;;;;15.05;2.45;;;5.50;99.90;;;;;;4133592;28;20117;-82
2022/01/18 02:34:04;;;;;;;19.52;2.95;;;5.50;99.90;;;;;;4132779;28;20058;-83
2022/01/18 02:36:09;;;;;;;21.10;2.50;;;5.50;99.90;;;;;;4150758;28;20085;-83
2022/01/18 02:38:11;;;;;;;13.85;1.55;;;5.60;99.90;;;;;;4133352;28;20503;-82
2022/01/18 02:40:11;;;;;;;11.68;2.08;;;5.60;99.90;;;;;;4116969;28;20042;-82
2022/01/18 02:42:15;;;;;;;38.28;2.83;;;5.60;99.90;;;;;;4150415;28;20089;-83
2022/01/18 02:44:16;;;;;;;13.77;2.15;;;5.60;99.90;;;;;;4150881;28;20050;-82
2022/01/18 02:46:18;;;;;;;15.40;2.55;;;5.70;99.90;;;;;;4132970;28;20424;-83
2022/01/18 02:48:19;;;;;;;18.25;2.38;;;6.70;99.90;;;;;;4150507;28;20561;-83
2022/01/18 02:50:24;;;;;;;16.10;2.80;;;5.60;99.90;;;;;;4117101;28;20051;-83
2022/01/18 02:52:27;;;;;;;21.38;3.55;;;4.90;99.90;;;;;;4150487;28;20088;-83
2022/01/18 02:54:28;;;;;;;27.45;4.32;;;6.20;99.90;;;;;;4116835;28;20057;-83
2022/01/18 02:56:33;;;;;;;14.05;2.10;;;5.70;99.90;;;;;;4132700;28;20444;-83
2022/01/18 02:58:36;;;;;;;20.27;1.70;;;5.70;99.90;;;;;;4132825;28;20054;-83
2022/01/18 03:03:11;;;;;;;11.02;2.05;;;6.10;99.90;;;;;;4132554;28;20430;-83
2022/01/18 03:03:16;;;;;;;16.98;1.95;;;5.70;99.90;;;;;;4150191;28;20046;-83
2022/01/18 03:05:16;;;;;;;10.02;2.05;;;6.40;99.90;;;;;;4116154;28;20113;-83
2022/01/18 03:07:18;;;;;;;15.43;2.08;;;5.80;99.90;;;;;;4131886;28;20129;-83
2022/01/18 03:09:19;;;;;;;18.98;3.28;;;6.50;99.90;;;;;;4132166;28;20042;-83
2022/01/18 03:11:20;;;;;;;23.23;1.90;;;5.80;99.90;;;;;;4130437;28;20211;-83
2022/01/18 03:13:20;;;;;;;12.75;1.55;;;6.40;99.90;;;;;;4149114;28;20521;-83
2022/01/18 03:15:21;;;;;;;13.30;2.15;;;6.50;99.90;;;;;;4149392;28;20128;-83
2022/01/18 03:17:22;;;;;;;18.30;2.50;;;5.80;99.90;;;;;;4131367;28;20069;-83
2022/01/18 03:19:23;;;;;;;5.53;1.20;;;5.80;99.90;;;;;;4148790;28;20050;-83
2022/01/18 03:21:24;;;;;;;12.68;1.63;;;5.80;99.90;;;;;;4116607;28;20507;-83
2022/01/18 03:23:25;;;;;;;10.40;1.70;;;5.80;99.90;;;;;;4149780;28;20045;-83
2022/01/18 03:29:52;;;;;;;14.18;1.33;;;6.50;99.90;;;;;;4149783;28;20050;-83
2022/01/18 03:31:53;;;;;;;10.38;1.38;;;6.00;99.90;;;;;;4150181;28;20049;-83
2022/01/18 03:33:54;;;;;;;13.98;1.40;;;6.00;99.90;;;;;;4131932;28;20113;-83
2022/01/18 03:35:55;;;;;;;17.83;2.58;;;6.00;99.90;;;;;;4150177;28;20941;-83
2022/01/18 03:37:56;;;;;;;11.18;2.50;;;6.00;99.90;;;;;;4134605;28;20367;-83
2022/01/18 03:39:57;;;;;;;9.88;1.08;;;6.00;99.90;;;;;;4132812;28;20082;-83
2022/01/18 03:42:21;;;;;;;18.30;2.22;;;6.00;99.90;;;;;;4132682;28;20050;-83
2022/01/18 03:44:19;;;;;;;20.20;2.70;;;6.00;99.90;;;;;;4133044;28;20062;-83
2022/01/18 03:46:21;;;;;;;10.23;1.60;;;6.00;99.90;;;;;;4131500;28;20043;-83
2022/01/18 03:48:37;;;;;;;18.08;1.98;;;6.00;99.90;;;;;;4132448;28;20046;-83
2022/01/18 03:50:38;;;;;;;19.85;2.00;;;6.30;99.90;;;;;;4115647;28;20422;-83
2022/01/18 03:52:40;;;;;;;11.35;1.42;;;6.10;99.90;;;;;;4149252;28;20048;-83
2022/01/18 03:54:47;;;;;;;12.27;1.85;;;6.10;99.90;;;;;;4132747;28;20517;-83
2022/01/18 03:56:48;;;;;;;13.43;2.08;;;6.00;99.90;;;;;;4149446;28;20093;-83
2022/01/18 03:58:49;;;;;;;9.30;1.10;;;6.10;99.90;;;;;;4131529;28;20046;-83
2022/01/18 04:00:52;;;;;;;13.13;1.98;;;6.00;99.90;;;;;;4149251;28;20045;-83
2022/01/18 04:02:54;;;;;;;11.40;2.28;;;6.10;99.90;;;;;;4131504;28;20053;-83
2022/01/18 04:04:56;;;;;;;10.73;1.92;;;6.10;99.90;;;;;;4131472;28;20050;-83
2022/01/18 04:06:56;;;;;;;11.73;1.38;;;6.60;99.90;;;;;;4149232;28;20057;-83
2022/01/18 04:08:57;;;;;;;9.25;1.02;;;6.00;99.90;;;;;;4132124;28;20042;-84
2022/01/18 04:10:58;;;;;;;10.10;1.27;;;6.00;99.90;;;;;;4132020;28;20544;-83
2022/01/18 04:12:59;;;;;;;5.38;1.05;;;6.00;99.90;;;;;;4149513;28;20403;-83
2022/01/18 04:15:04;;;;;;;14.13;1.95;;;6.00;99.90;;;;;;4131204;28;20046;-83
2022/01/18 04:28:36;;;;;;;8.02;1.58;;;6.20;99.90;;;;;;4130991;28;20058;-84
2022/01/18 04:30:37;;;;;;;9.00;1.75;;;6.00;99.90;;;;;;4148265;28;20045;-83
2022/01/18 04:32:38;;;;;;;10.15;1.50;;;6.70;99.90;;;;;;4149550;28;20133;-83
2022/01/18 04:34:40;;;;;;;11.75;1.10;;;7.00;99.90;;;;;;4148881;28;20499;-84
2022/01/18 04:36:41;;;;;;;6.63;1.02;;;6.40;99.90;;;;;;4131682;28;20060;-83
2022/01/18 04:38:45;;;;;;;4.82;0.93;;;6.00;99.90;;;;;;4132840;28;20125;-83
2022/01/18 04:40:47;;;;;;;11.95;1.27;;;6.10;99.90;;;;;;4148332;28;20050;-83
2022/01/18 04:49:32;;;;;;;8.48;1.42;;;6.50;99.90;;;;;;4147284;28;20050;-83
2022/01/18 04:51:34;;;;;;;11.25;0.85;;;6.10;99.90;;;;;;4131226;28;20050;-83
2022/01/18 04:53:40;;;;;;;8.93;0.90;;;6.00;99.90;;;;;;4148926;28;20450;-83
2022/01/18 04:55:41;;;;;;;7.63;1.25;;;6.30;99.90;;;;;;4148863;28;20115;-83
2022/01/18 04:57:52;;;;;;;9.13;0.95;;;6.10;99.90;;;;;;4131098;28;20050;-84
2022/01/18 04:59:54;;;;;;;6.55;1.25;;;6.70;99.90;;;;;;4131494;28;20046;-83
2022/01/18 05:01:55;;;;;;;7.93;1.90;;;6.10;99.90;;;;;;4131653;28;20188;-83
2022/01/18 05:03:56;;;;;;;7.07;1.05;;;6.10;99.90;;;;;;4149008;28;20224;-83
2022/01/18 05:06:01;;;;;;;10.65;1.98;;;6.10;99.90;;;;;;4130781;28;20137;-83
2022/01/18 05:08:04;;;;;;;8.52;0.77;;;6.80;99.90;;;;;;4149051;28;20038;-83
2022/01/18 05:10:06;;;;;;;6.25;0.90;;;6.00;99.90;;;;;;4131293;28;20057;-83
2022/01/18 05:12:15;;;;;;;8.02;1.27;;;6.00;99.90;;;;;;4131808;28;20081;-83
2022/01/18 05:14:31;;;;;;;6.75;0.68;;;6.10;99.90;;;;;;4131667;28;20102;-83
2022/01/18 05:23:19;;;;;;;5.93;0.82;;;6.00;99.90;;;;;;4149152;28;20053;-83
2022/01/18 05:25:20;;;;;;;12.73;1.02;;;6.00;99.90;;;;;;4148321;28;20077;-83
2022/01/18 05:27:21;;;;;;;3.33;0.60;;;6.00;99.90;;;;;;4130891;28;20069;-83
2022/01/18 05:29:22;;;;;;;9.68;1.55;;;6.50;99.90;;;;;;4130501;28;20046;-83
2022/01/18 05:31:23;;;;;;;8.43;1.27;;;6.00;99.90;;;;;;4143836;28;20046;-83
2022/01/18 05:33:27;;;;;;;10.18;0.80;;;6.00;99.90;;;;;;4163766;28;20052;-83
2022/01/18 05:35:28;;;;;;;7.90;1.23;;;6.90;99.90;;;;;;4115315;28;20043;-83
2022/01/18 05:37:29;;;;;;;3.45;1.00;;;6.00;99.90;;;;;;4142932;28;20050;-83
2022/01/18 05:39:29;;;;;;;5.28;1.00;;;6.00;99.90;;;;;;4145832;28;20119;-83
2022/01/18 05:41:30;;;;;;;1.38;0.75;;;6.80;99.90;;;;;;4114564;28;20061;-83
2022/01/18 05:43:31;;;;;;;8.45;0.80;;;6.00;99.90;;;;;;4133948;28;20050;-83
2022/01/18 05:45:34;;;;;;;6.47;0.90;;;6.00;99.90;;;;;;4135066;28;20046;-83
2022/01/18 05:47:36;;;;;;;12.73;2.15;;;6.70;99.90;;;;;;4119314;28;20431;-83
2022/01/18 05:49:37;;;;;;;5.07;0.82;;;6.40;99.90;;;;;;4119451;28;20149;-83
2022/01/18 05:51:40;;;;;;;4.55;0.60;;;6.20;99.90;;;;;;4135613;28;20172;-83
2022/01/18 05:53:41;;;;;;;6.07;1.27;;;6.30;99.90;;;;;;4152881;28;20042;-83
2022/01/18 05:55:43;;;;;;;5.35;0.80;;;6.70;99.90;;;;;;4135549;28;20133;-83
2022/01/18 05:57:46;;;;;;;7.22;0.70;;;6.10;99.90;;;;;;4154378;28;20608;-82
2022/01/18 05:59:50;;;;;;;3.00;0.55;;;7.00;99.90;;;;;;4153200;28;20034;-82
2022/01/18 06:02:01;;;;;;;7.40;0.90;;;6.80;99.90;;;;;;4136024;28;20058;-82
2022/01/18 06:08:22;;;;;;;;;;;6.10;99.90;;;;;;4153695;28;20124;-83
2022/01/18 06:10:23;;;;;;;6.18;1.38;;;6.10;99.90;;;;;;4135918;28;19925;-82
2022/01/18 06:12:27;;;;;;;11.55;1.25;;;6.20;99.90;;;;;;4134958;28;20050;-83
2022/01/18 06:14:27;;;;;;;8.45;0.98;;;6.80;99.90;;;;;;4153453;28;20048;-84
2022/01/18 06:16:35;;;;;;;9.05;0.80;;;6.20;99.90;;;;;;4153134;28;20402;-84
2022/01/18 06:18:36;;;;;;;7.70;1.15;;;7.40;99.90;;;;;;4142341;28;20049;-84
2022/01/18 06:20:36;;;;;;;5.97;0.80;;;6.20;99.90;;;;;;4136711;28;20046;-83
2022/01/18 06:22:41;;;;;;;7.80;0.70;;;6.20;99.90;;;;;;4129377;28;20093;-83
2022/01/18 06:24:44;;;;;;;4.18;0.50;;;6.20;99.90;;;;;;4135363;28;20043;-83
2022/01/18 06:26:45;;;;;;;8.40;0.85;;;7.50;99.90;;;;;;4153640;28;20081;-83
2022/01/18 06:28:46;;;;;;;7.40;1.15;;;6.20;99.90;;;;;;4152725;28;20099;-82
2022/01/18 06:30:47;;;;;;;5.78;0.65;;;6.00;99.90;;;;;;4144278;28;20521;-83
2022/01/18 06:32:47;;;;;;;6.43;1.65;;;6.20;99.90;;;;;;4168951;28;20148;-83
2022/01/18 06:34:48;;;;;;;7.45;0.70;;;6.20;99.90;;;;;;4156663;28;20436;-83
2022/01/18 06:36:49;;;;;;;3.63;0.70;;;6.20;99.90;;;;;;4135591;28;20073;-83
2022/01/18 06:38:50;;;;;;;2.30;1.20;;;6.30;99.90;;;;;;4153627;28;20038;-83
2022/01/18 06:40:50;;;;;;;11.13;1.35;;;6.70;99.90;;;;;;4153458;28;20046;-83
2022/01/18 06:42:51;;;;;;;6.10;0.95;;;6.20;99.90;;;;;;4152959;28;20057;-83
2022/01/18 06:44:55;;;;;;;12.40;1.38;;;6.80;99.90;;;;;;4135042;28;20062;-83
2022/01/18 06:46:56;;;;;;;8.02;1.88;;;6.30;99.90;;;;;;4135493;28;20097;-83
2022/01/18 06:48:57;;;;;;;9.25;1.60;;;7.30;99.90;;;;;;4135833;28;20523;-83
2022/01/18 06:50:58;;;;;;;6.85;1.00;;;7.60;99.90;;;;;;4152930;28;20046;-83
2022/01/18 06:52:58;;;;;;;8.60;1.23;;;6.20;99.90;;;;;;4135431;28;20149;-82
2022/01/18 06:55:02;;;;;;;6.15;0.90;;;7.40;99.90;;;;;;4132184;28;20081;-82
2022/01/18 06:57:03;;;;;;;7.47;1.08;;;6.30;99.90;;;;;;4150155;28;20080;-82
2022/01/18 06:59:04;;;;;;;5.18;1.23;;;6.30;99.90;;;;;;4150336;28;20121;-82
2022/01/18 07:01:05;;;;;;;4.50;0.90;;;7.00;99.90;;;;;;4150116;28;20045;-82
2022/01/18 07:03:06;;;;;;;8.20;1.10;;;6.30;99.90;;;;;;4148407;28;20046;-82
2022/01/18 07:05:07;;;;;;;4.55;1.08;;;6.80;99.90;;;;;;4150404;28;20077;-82
2022/01/18 07:07:08;;;;;;;7.88;1.08;;;6.30;99.90;;;;;;4116946;28;20109;-82
2022/01/18 07:09:09;;;;;;;7.80;1.23;;;5.70;99.90;;;;;;4149935;28;20121;-82
2022/01/18 07:11:12;;;;;;;7.55;0.80;;;7.60;99.90;;;;;;4132792;28;20133;-82
2022/01/18 07:13:14;;;;;;;9.27;1.15;;;6.50;99.90;;;;;;4162937;28;20049;-82
2022/01/18 07:15:20;;;;;;;6.53;1.08;;;7.20;99.90;;;;;;4148660;28;20051;-82
2022/01/18 07:17:21;;;;;;;7.72;1.15;;;6.20;99.90;;;;;;4118412;28;20059;-82
2022/01/18 07:19:21;;;;;;;7.88;1.20;;;6.50;99.90;;;;;;4153165;28;20553;-82
2022/01/18 07:21:22;;;;;;;4.18;1.33;;;5.90;99.90;;;;;;4117643;28;20121;-82
2022/01/18 07:23:23;;;;;;;8.02;1.35;;;6.30;99.90;;;;;;4132369;28;20069;-82
2022/01/18 07:25:25;;;;;;;7.50;2.58;;;6.20;99.90;;;;;;4132092;28;20050;-82
2022/01/18 07:27:26;;;;;;;8.63;1.27;;;6.20;99.90;;;;;;4132682;28;20462;-82
2022/01/18 07:29:27;;;;;;;8.18;1.23;;;6.20;99.90;;;;;;4133786;28;20046;-81
2022/01/18 07:31:28;;;;;;;13.13;1.10;;;6.30;99.90;;;;;;4147503;28;20379;-81
2022/01/18 07:33:29;;;;;;;5.65;2.10;;;6.20;99.90;;;;;;4131553;28;20125;-82
2022/01/18 07:35:32;;;;;;;9.52;2.05;;;6.90;99.90;;;;;;4131815;28;20058;-82
2022/01/18 07:37:33;;;;;;;10.85;1.42;;;6.90;99.90;;;;;;4148635;28;20048;-82
2022/01/18 07:39:34;;;;;;;7.47;1.80;;;6.20;99.90;;;;;;4132941;28;20078;-82
2022/01/18 07:41:37;;;;;;;11.77;2.05;;;7.20;99.90;;;;;;4117718;28;20118;-82
2022/01/18 07:43:40;;;;;;;6.32;1.55;;;6.90;99.90;;;;;;4154450;28;20108;-82
2022/01/18 07:45:48;;;;;;;6.57;1.63;;;6.20;99.90;;;;;;4151177;28;20469;-80
2022/01/18 07:47:49;;;;;;;10.45;2.42;;;6.10;99.90;;;;;;4133504;28;20089;-81
2022/01/18 07:49:50;;;;;;;8.77;1.85;;;7.10;99.90;;;;;;4150804;28;20042;-82
2022/01/18 07:51:52;;;;;;;8.93;1.90;;;7.50;99.90;;;;;;4150185;28;20121;-82
2022/01/18 07:53:53;;;;;;;12.30;1.60;;;6.20;99.90;;;;;;4150307;28;20042;-81
2022/01/18 07:55:54;;;;;;;10.57;1.52;;;6.10;99.90;;;;;;4132738;28;20054;-81
2022/01/18 07:57:58;;;;;;;8.15;1.77;;;6.80;99.90;;;;;;4133554;28;20129;-81
2022/01/18 07:59:59;;;;;;;6.10;1.33;;;7.50;99.90;;;;;;4132442;28;20050;-82
2022/01/18 08:02:03;;;;;;;6.90;1.48;;;6.20;99.90;;;;;;4116781;28;20563;-83
2022/01/18 08:04:04;;;;;;;13.65;2.10;;;7.50;99.90;;;;;;4132329;28;20062;-83
2022/01/18 08:06:05;;;;;;;14.32;1.92;;;6.10;99.90;;;;;;4132137;28;20116;-81
2022/01/18 08:08:10;;;;;;;12.85;1.95;;;6.70;99.90;;;;;;4132292;28;20054;-83
2022/01/18 08:10:12;;;;;;;8.65;2.47;;;6.10;99.90;;;;;;4132760;28;20054;-82
2022/01/18 08:12:13;;;;;;;6.78;1.65;;;6.10;99.90;;;;;;4132460;28;20054;-83
2022/01/18 08:14:17;;;;;;;13.35;2.83;;;6.70;99.90;;;;;;4150351;28;20505;-82
2022/01/18 08:18:22;;;;;;;14.52;2.00;;;6.10;99.90;;;;;;4134883;28;20050;-83
2022/01/18 08:20:23;;;;;;;9.48;1.75;;;6.70;99.90;;;;;;4149977;28;20069;-83
2022/01/18 08:22:24;;;;;;;5.47;1.48;;;6.10;99.90;;;;;;4132061;28;20053;-83
2022/01/18 08:24:25;;;;;;;12.65;1.95;;;6.90;99.90;;;;;;4131454;28;20089;-82
2022/01/18 08:26:26;;;;;;;14.25;1.83;;;7.10;99.90;;;;;;4132189;28;20046;-82
2022/01/18 08:28:27;;;;;;;9.38;2.03;;;6.80;99.90;;;;;;4116434;28;20145;-83
2022/01/18 08:30:28;;;;;;;8.75;2.15;;;7.30;99.90;;;;;;4140489;28;20054;-83
2022/01/18 08:32:28;;;;;;;9.77;1.63;;;7.40;99.90;;;;;;4142367;28;20054;-82
2022/01/18 08:34:30;;;;;;;10.40;1.88;;;6.10;99.90;;;;;;4148740;28;20470;-85
2022/01/18 08:36:31;;;;;;;11.23;2.25;;;6.30;99.90;;;;;;4116363;28;20125;-84
2022/01/18 08:38:32;;;;;;;11.23;1.90;;;5.70;99.90;;;;;;4133781;28;20133;-83
2022/01/18 08:40:33;;;;;;;9.73;1.75;;;7.40;99.90;;;;;;4158631;28;20390;-84
2022/01/18 08:42:36;;;;;;;11.95;1.90;;;7.50;99.90;;;;;;4133988;28;20061;-83
2022/01/18 08:44:37;;;;;;;12.60;1.58;;;7.50;99.90;;;;;;4115642;28;20046;-83
2022/01/18 08:46:37;;;;;;;11.73;2.42;;;6.30;99.90;;;;;;4115563;28;20069;-84
2022/01/18 08:48:38;;;;;;;9.02;2.17;;;7.20;99.90;;;;;;4140382;28;20045;-83
2022/01/18 08:50:40;;;;;;;10.07;1.83;;;7.20;99.90;;;;;;4149852;28;20544;-83
2022/01/18 08:52:40;;;;;;;18.08;2.28;;;6.30;99.90;;;;;;4142150;28;20166;-86
2022/01/18 08:54:43;;;;;;;14.73;1.92;;;7.10;99.90;;;;;;4132567;28;20058;-84
2022/01/18 08:56:44;;;;;;;8.30;1.77;;;5.70;99.90;;;;;;4100176;28;20138;-84
2022/01/18 08:58:45;;;;;;;8.73;1.73;;;7.50;99.90;;;;;;4143519;28;20503;-84
2022/01/18 09:00:49;;;;;;;13.02;2.42;;;6.30;99.90;;;;;;4149509;28;20046;-84
2022/01/18 09:02:50;;;;;;;8.88;1.70;;;6.30;99.90;;;;;;4115688;28;20055;-85
2022/01/18 09:04:50;;;;;;;7.25;1.73;;;6.90;99.90;;;;;;4149496;28;20038;-83
2022/01/18 09:06:52;;;;;;;10.90;2.47;;;7.70;99.90;;;;;;4150132;28;20117;-83
2022/01/18 09:08:57;;;;;;;9.45;1.92;;;7.60;99.90;;;;;;4132214;28;20985;-84
2022/01/18 09:10:58;;;;;;;6.68;1.77;;;7.50;99.90;;;;;;4111547;28;20062;-84
2022/01/18 09:12:59;;;;;;;5.60;1.50;;;6.60;99.90;;;;;;4149365;28;20514;-85
2022/01/18 09:15:01;;;;;;;7.05;1.55;;;6.40;99.90;;;;;;4130314;28;20169;-84
2022/01/18 09:17:02;;;;;;;4.40;1.50;;;7.70;99.90;;;;;;4139825;28;20474;-84
2022/01/18 09:19:03;;;;;;;10.63;1.27;;;6.40;99.90;;;;;;4118219;28;20074;-83
2022/01/18 09:21:04;;;;;;;6.88;1.80;;;6.40;99.90;;;;;;4149838;28;20076;-84
2022/01/18 09:23:05;;;;;;;7.43;1.70;;;6.50;99.90;;;;;;4131656;28;20054;-84
2022/01/18 09:25:10;;;;;;;10.50;1.52;;;7.40;99.90;;;;;;4132060;28;20117;-83
2022/01/18 09:27:11;;;;;;;5.18;1.65;;;6.50;99.90;;;;;;4117350;28;20047;-83
2022/01/18 09:29:14;;;;;;;8.23;1.80;;;7.10;99.90;;;;;;4149551;28;20405;-84
2022/01/18 09:31:15;;;;;;;13.13;1.67;;;6.30;99.90;;;;;;4105966;28;20050;-84
2022/01/18 09:33:16;;;;;;;5.78;1.70;;;6.60;99.90;;;;;;4115266;28;20043;-83
2022/01/18 09:35:17;;;;;;;11.52;1.65;;;6.60;99.90;;;;;;4131491;28;20422;-84
2022/01/18 09:37:18;;;;;;;5.93;1.45;;;6.60;99.90;;;;;;4126452;28;20129;-84
2022/01/18 09:39:19;;;;;;;10.43;1.40;;;6.60;99.90;;;;;;4148142;28;20073;-84
2022/01/18 09:41:26;;;;;;;10.48;1.50;;;6.70;99.90;;;;;;4147673;28;20042;-82
2022/01/18 09:43:28;;;;;;;13.70;1.73;;;6.70;99.90;;;;;;4131302;28;20085;-84
2022/01/18 09:45:30;;;;;;;9.25;1.30;;;8.10;99.90;;;;;;4148061;28;20419;-85
2022/01/18 09:47:30;;;;;;;9.93;1.80;;;6.80;99.90;;;;;;4147798;28;20042;-86
2022/01/18 09:49:34;;;;;;;13.27;1.48;;;8.10;99.90;;;;;;4114688;28;20077;-83
2022/01/18 09:51:35;;;;;;;12.00;1.73;;;6.90;99.90;;;;;;4131259;28;20094;-83
2022/01/18 09:53:36;;;;;;;7.10;3.08;;;7.40;99.90;;;;;;4131523;28;20042;-83
2022/01/18 09:55:39;;;;;;;7.28;1.48;;;7.00;99.90;;;;;;4115051;28;20054;-84
2022/01/18 09:57:40;;;;;;;8.45;1.13;;;7.00;99.90;;;;;;4148534;28;20486;-83
2022/01/18 09:59:41;;;;;;;7.30;1.83;;;7.00;99.90;;;;;;4148247;28;20046;-83
2022/01/18 10:01:41;;;;;;;10.18;1.40;;;8.40;99.90;;;;;;4148984;28;20449;-83
2022/01/18 10:03:42;;;;;;;7.43;1.20;;;7.80;99.90;;;;;;4139152;28;20043;-84
2022/01/18 10:05:49;;;;;;;8.45;2.08;;;7.00;99.90;;;;;;4152142;28;20095;-83
2022/01/18 10:08:14;;;;;;;5.93;1.42;;;7.60;99.90;;;;;;4145709;28;20056;-84
2022/01/18 10:10:16;;;;;;;3.70;1.38;;;7.10;99.90;;;;;;4151520;28;20039;-83
2022/01/18 10:12:21;;;;;;;13.13;1.80;;;7.20;99.90;;;;;;4132500;28;20081;-84
2022/01/18 10:14:22;;;;;;;5.85;1.80;;;7.60;99.90;;;;;;4114564;28;20103;-83
2022/01/18 10:16:23;;;;;;;9.48;1.48;;;7.30;99.90;;;;;;4147477;28;20045;-83
2022/01/18 10:18:48;;;;;;;9.13;1.50;;;7.40;99.90;;;;;;4153922;28;20078;-83
2022/01/18 10:20:52;;;;;;;9.13;1.38;;;7.40;99.90;;;;;;4132219;28;20438;-84
2022/01/18 10:22:53;;;;;;;8.60;1.33;;;8.60;99.90;;;;;;4115274;28;20503;-83
2022/01/18 10:25:18;;;;;;;11.77;1.52;;;7.40;99.90;;;;;;4117355;28;20062;-83
2022/01/18 10:27:19;;;;;;;12.77;1.45;;;7.40;99.90;;;;;;4157117;28;20050;-83
2022/01/18 10:29:28;;;;;;;12.45;1.50;;;7.50;99.90;;;;;;4116293;28;20050;-84
2022/01/18 10:31:42;;;;;;;7.57;1.88;;;8.60;99.90;;;;;;4151614;28;20060;-83
2022/01/18 10:33:57;;;;;;;9.50;1.88;;;7.40;99.90;;;;;;4151405;28;20128;-83
2022/01/18 10:36:11;;;;;;;6.28;1.27;;;8.40;99.90;;;;;;4134405;28;20050;-83
2022/01/18 10:38:18;;;;;;;10.18;1.48;;;7.50;99.90;;;;;;4121938;28;20093;-84
2022/01/18 10:40:19;;;;;;;5.88;1.52;;;8.00;99.90;;;;;;4121691;28;20055;-83
2022/01/18 10:42:29;;;;;;;3.67;1.40;;;7.50;99.90;;;;;;4139100;28;20061;-84
2022/01/18 10:44:34;;;;;;;8.32;2.33;;;7.50;99.90;;;;;;4136409;28;20435;-84
2022/01/18 10:46:48;;;;;;;6.80;1.60;;;7.50;99.90;;;;;;4134339;28;20073;-83
2022/01/18 10:48:49;;;;;;;7.00;1.45;;;7.60;99.90;;;;;;4151651;28;20491;-83
2022/01/18 10:50:50;;;;;;;6.20;1.67;;;7.50;99.90;;;;;;4152053;28;20049;-82
2022/01/18 10:52:54;;;;;;;7.45;2.03;;;7.50;99.90;;;;;;4151928;28;20514;-82
2022/01/18 10:54:58;;;;;;;6.35;2.28;;;7.50;99.90;;;;;;4150094;28;20058;-85
2022/01/18 10:57:02;;;;;;;11.68;1.55;;;8.30;99.90;;;;;;4145932;28;20471;-83
2022/01/18 10:59:04;;;;;;;10.48;1.70;;;7.50;99.90;;;;;;4127367;28;20545;-83
2022/01/18 11:01:20;;;;;;;10.18;1.35;;;7.40;99.90;;;;;;4147280;28;20092;-84
2022/01/18 11:03:20;;;;;;;8.57;1.48;;;7.40;99.90;;;;;;4151540;28;20049;-83
2022/01/18 11:05:30;;;;;;;6.28;1.40;;;7.40;99.90;;;;;;4148734;28;20049;-85
2022/01/18 11:07:38;;;;;;;5.68;1.40;;;8.10;99.90;;;;;;4138193;28;20066;-84
2022/01/18 11:09:40;;;;;;;6.13;1.60;;;7.30;99.90;;;;;;4133971;28;20527;-83
2022/01/18 11:11:50;;;;;;;14.02;1.98;;;7.50;99.90;;;;;;4116552;28;20112;-83
2022/01/18 11:13:51;;;;;;;14.27;2.00;;;8.20;99.90;;;;;;4140201;28;20065;-83
2022/01/18 11:16:02;;;;;;;10.93;1.98;;;8.10;99.90;;;;;;4132817;28;20054;-84
2022/01/18 11:18:09;;;;;;;3.30;1.33;;;7.30;99.90;;;;;;4151580;28;20050;-83
2022/01/18 11:20:10;;;;;;;11.48;1.75;;;7.30;99.90;;;;;;4117766;28;20062;-83
2022/01/18 11:22:10;;;;;;;7.25;2.03;;;7.30;99.90;;;;;;4133770;28;20414;-83
2022/01/18 11:24:14;;;;;;;8.15;1.70;;;7.60;99.90;;;;;;4133567;28;20100;-83
2022/01/18 11:26:17;;;;;;;10.43;1.83;;;7.30;99.90;;;;;;4150622;28;20475;-83
2022/01/18 11:28:18;;;;;;;5.22;1.83;;;7.90;99.90;;;;;;4150965;28;20053;-83
2022/01/18 11:30:24;;;;;;;9.73;2.10;;;8.20;99.90;;;;;;4150271;28;20068;-83
2022/01/18 11:32:27;;;;;;;6.03;1.50;;;7.50;99.90;;;;;;4133411;28;20085;-83
2022/01/18 11:34:42;;;;;;;8.32;1.75;;;7.30;99.90;;;;;;4133357;28;20114;-83
2022/01/18 11:36:48;;;;;;;13.57;2.00;;;7.50;99.90;;;;;;4150293;28;20042;-83
2022/01/18 11:39:00;;;;;;;8.88;1.27;;;7.40;99.90;;;;;;4133256;28;20061;-83
2022/01/18 11:41:06;;;;;;;11.15;1.73;;;7.50;99.90;;;;;;4150054;28;20050;-83
2022/01/18 11:43:08;;;;;;;8.23;1.45;;;8.00;99.90;;;;;;4143960;28;20049;-83
2022/01/18 11:45:27;;;;;;;8.30;2.10;;;7.30;99.90;;;;;;4166838;28;20509;-83
2022/01/18 11:47:28;;;;;;;7.25;1.65;;;7.30;99.90;;;;;;4116961;28;20102;-83
2022/01/18 11:49:32;;;;;;;9.80;1.38;;;7.00;99.90;;;;;;4148333;28;20050;-83
2022/01/18 11:51:37;;;;;;;6.28;1.30;;;7.40;99.90;;;;;;4117174;28;20494;-83
2022/01/18 11:53:45;;;;;;;4.97;1.15;;;7.30;99.90;;;;;;4117142;28;20520;-83
2022/01/18 11:55:46;;;;;;;3.67;1.08;;;6.80;99.90;;;;;;4117296;28;20225;-83